Time;durP1;ratioP1;P1;durP2;ratioP2;P2;SDS_P1;SDS_P2;PMS_P1;PMS_P2;Temp;Humidity;BMP_temperature;BMP_pressure;BME280_temperature;BME280_humidity;BME280_pressure;Samples;Min_cycle;Max_cycle;Signal;HPM_P1;HPM_P2
2022/11/17 00:01:53;;;;;;;26.55;12.55;;;;;;;-0.40;58.80;99489.72;5041004;28;20040;-54
2022/11/17 00:04:18;;;;;;;25.73;12.52;;;;;;;-0.25;58.65;99518.97;5034107;28;20025;-54
2022/11/17 00:06:43;;;;;;;28.70;12.95;;;;;;;-0.23;59.34;99519.75;5040740;28;20493;-52
2022/11/17 00:09:16;;;;;;;27.23;13.98;;;;;;;-0.21;59.65;99505.63;5053754;28;20037;-52
2022/11/17 00:14:39;;;;;;;27.85;13.27;;;;;;;-0.20;58.58;99507.34;5035829;28;20036;-52
2022/11/17 00:17:10;;;;;;;25.33;13.82;;;;;;;-0.19;59.39;99506.41;5033463;28;20030;-55
2022/11/17 00:22:20;;;;;;;27.25;11.80;;;;;;;-0.18;58.68;99492.34;5046403;28;20412;-54
2022/11/17 00:24:47;;;;;;;22.45;12.18;;;;;;;-0.20;58.63;99501.19;5053957;28;20033;-50
2022/11/17 00:27:13;;;;;;;24.55;11.85;;;;;;;-0.38;59.36;99458.94;5053832;28;20515;-50
2022/11/17 00:29:38;;;;;;;23.63;11.30;;;;;;;-0.20;59.05;99485.41;5053465;28;20182;-53
2022/11/17 00:34:47;;;;;;;22.73;11.80;;;;;;;-0.16;58.61;99485.22;5054007;28;20029;-52
2022/11/17 00:37:14;;;;;;;26.63;11.93;;;;;;;-0.20;58.84;99475.75;5052806;28;20033;-54
2022/11/17 00:39:40;;;;;;;19.98;11.52;;;;;;;-0.18;58.68;99479.19;5034404;28;20052;-49
2022/11/17 00:42:05;;;;;;;25.05;12.55;;;;;;;-0.20;59.19;99481.03;5042007;28;20033;-50
2022/11/17 00:44:31;;;;;;;23.17;12.75;;;;;;;-0.22;59.33;99477.59;5053608;28;20368;-51
2022/11/17 00:46:56;;;;;;;22.85;12.45;;;;;;;-0.20;59.19;99481.03;5052372;28;20067;-52
2022/11/17 00:49:25;;;;;;;20.95;11.63;;;;;;;-0.21;59.21;99471.41;5053004;28;20118;-51
2022/11/17 00:51:54;;;;;;;23.38;11.25;;;;;;;-0.26;59.11;99465.47;5045640;28;20355;-50
2022/11/17 00:54:21;;;;;;;24.13;12.00;;;;;;;-0.42;59.47;99443.38;5033695;28;20353;-54
2022/11/17 00:56:47;;;;;;;24.48;11.85;;;;;;;-0.29;59.08;99462.97;5033249;28;20183;-50
2022/11/17 00:59:13;;;;;;;22.17;11.68;;;;;;;-0.29;59.10;99473.50;5033835;28;20163;-51
2022/11/17 01:01:39;;;;;;;21.05;11.20;;;;;;;-0.32;59.15;99461.34;5040292;28;20044;-53
2022/11/17 01:04:05;;;;;;;25.85;12.85;;;;;;;-0.35;59.89;99453.59;5053456;28;20126;-51
2022/11/17 01:06:39;;;;;;;21.77;11.57;;;;;;;-0.32;59.82;99448.19;5051887;28;20322;-52
2022/11/17 01:09:08;;;;;;;25.30;12.38;;;;;;;-0.46;59.31;99430.34;5052637;28;20423;-53
2022/11/17 01:11:34;;;;;;;24.35;12.05;;;;;;;-0.33;59.55;99454.38;5046683;28;20029;-49
2022/11/17 01:14:00;;;;;;;22.45;12.48;;;;;;;-0.36;59.45;99443.97;5033465;28;20116;-54
2022/11/17 01:16:26;;;;;;;22.92;12.27;;;;;;;-0.33;59.93;99453.50;5032685;28;20037;-51
2022/11/17 01:18:52;;;;;;;21.08;11.95;;;;;;;-0.34;59.72;99442.13;5031770;28;20033;-53
2022/11/17 01:21:23;;;;;;;22.13;11.77;;;;;;;-0.29;59.85;99444.56;5034212;28;20356;-53
2022/11/17 01:23:52;;;;;;;23.55;11.52;;;;;;;-0.30;59.89;99437.59;5033560;28;20512;-53
2022/11/17 01:26:20;;;;;;;27.63;11.90;;;;;;;-0.33;59.95;99435.09;5050120;28;20116;-54
2022/11/17 01:28:46;;;;;;;22.92;11.23;;;;;;;-0.36;59.90;99424.69;5052157;28;20062;-54
2022/11/17 01:31:15;;;;;;;21.48;12.23;;;;;;;-0.36;60.01;99432.59;5049862;28;20127;-54
2022/11/17 01:33:41;;;;;;;21.52;10.95;;;;;;;-0.35;60.74;99435.16;5033093;28;20033;-53
2022/11/17 01:36:12;;;;;;;23.33;11.75;;;;;;;-0.34;60.31;99425.47;5032410;28;20111;-55
2022/11/17 01:38:37;;;;;;;22.33;11.15;;;;;;;-0.36;60.78;99432.59;5032465;28;20460;-51
2022/11/17 01:41:05;;;;;;;20.42;11.55;;;;;;;-0.34;60.81;99425.47;5033577;28;20029;-56
2022/11/17 01:43:49;;;;;;;21.05;11.70;;;;;;;-0.34;61.03;99409.69;5052364;28;20109;-53
2022/11/17 01:46:32;;;;;;;23.85;12.00;;;;;;;-0.45;61.24;99397.88;5051909;28;20336;-55
2022/11/17 01:49:11;;;;;;;23.02;11.43;;;;;;;-0.33;61.37;99421.94;5050621;28;20124;-54
2022/11/17 01:51:42;;;;;;;26.23;11.88;;;;;;;-0.35;61.26;99414.13;5037444;28;20127;-52
2022/11/17 01:54:10;;;;;;;26.08;12.50;;;;;;;-0.37;61.53;99425.63;5052159;28;20032;-55
2022/11/17 01:56:41;;;;;;;26.52;12.35;;;;;;;-0.40;61.92;99420.50;5032297;28;20103;-57
2022/11/17 01:59:18;;;;;;;26.08;12.00;;;;;;;-0.59;61.88;99384.44;5035768;28;20471;-55
2022/11/17 02:01:57;;;;;;;24.73;10.90;;;;;;;-0.41;62.78;99418.78;5052146;28;20040;-58
2022/11/17 02:04:37;;;;;;;20.27;10.00;;;;;;;-0.46;62.64;99398.78;5052040;28;20043;-54
2022/11/17 02:07:10;;;;;;;19.23;10.30;;;;;;;-0.39;63.16;99416.94;5051147;28;20059;-52
2022/11/17 02:09:38;;;;;;;23.65;11.38;;;;;;;-0.65;63.35;99377.66;5044049;28;20021;-52
2022/11/17 02:12:07;;;;;;;22.13;10.80;;;;;;;-0.47;63.47;99415.50;5031806;28;20594;-51
2022/11/17 02:14:34;;;;;;;20.13;10.85;;;;;;;-0.51;64.60;99408.63;5032429;28;20034;-51
2022/11/17 02:17:01;;;;;;;20.13;10.95;;;;;;;-0.48;64.64;99413.78;5031880;28;20041;-56
2022/11/17 02:19:32;;;;;;;20.88;10.70;;;;;;;-0.49;64.35;99401.53;5045002;28;20041;-53
2022/11/17 02:22:09;;;;;;;22.63;10.88;;;;;;;-0.46;64.86;99406.69;5032286;28;20029;-55
2022/11/17 02:24:53;;;;;;;23.17;10.57;;;;;;;-0.52;64.63;99404.28;5032168;28;20482;-52
2022/11/17 02:27:34;;;;;;;20.08;10.50;;;;;;;-0.44;64.54;99403.97;5031411;28;20061;-57
2022/11/17 02:30:04;;;;;;;19.52;11.55;;;;;;;-0.51;64.94;99392.84;5041710;28;20517;-56
2022/11/17 02:33:01;;;;;;;18.88;10.35;;;;;;;-0.48;65.24;99390.13;5050849;28;20566;-56
2022/11/17 02:35:30;;;;;;;25.15;10.27;;;;;;;-0.44;65.03;99396.06;5050984;28;20123;-52
2022/11/17 02:38:05;;;;;;;18.35;10.20;;;;;;;-0.42;65.28;99388.13;5051887;28;20040;-52
2022/11/17 02:40:40;;;;;;;19.08;10.57;;;;;;;-0.42;65.15;99382.88;5038375;28;20072;-53
2022/11/17 02:46:01;;;;;;;19.30;9.50;;;;;;;-0.47;64.63;99378.69;5035792;28;20048;-58
2022/11/17 02:48:32;;;;;;;19.58;9.48;;;;;;;-0.50;65.26;99372.69;5036291;28;20452;-56
2022/11/17 02:50:58;;;;;;;16.80;9.52;;;;;;;-0.50;65.16;99375.31;5053420;28;20079;-55
2022/11/17 02:53:26;;;;;;;18.40;8.77;;;;;;;-0.67;65.31;99333.94;5055539;28;20037;-55
2022/11/17 02:55:53;;;;;;;14.02;9.00;;;;;;;-0.49;65.07;99366.50;5055922;28;20087;-56
2022/11/17 02:58:19;;;;;;;15.40;9.07;;;;;;;-0.53;64.96;99346.50;5055312;28;20044;-56
2022/11/17 03:01:08;;;;;;;18.00;9.20;;;;;;;-0.44;65.30;99357.50;5053527;28;20112;-55
2022/11/17 03:03:56;;;;;;;14.23;8.70;;;;;;;-0.45;65.14;99362.81;5042700;28;20029;-55
2022/11/17 03:07:03;;;;;;;16.08;8.90;;;;;;;-0.39;64.68;99357.28;5035737;28;20116;-55
2022/11/17 03:09:31;;;;;;;16.58;9.55;;;;;;;-0.54;64.43;99356.16;5039206;28;20486;-55
2022/11/17 03:12:15;;;;;;;16.60;9.30;;;;;;;-0.52;65.33;99354.31;5055169;28;20036;-59
2022/11/17 03:14:56;;;;;;;19.08;9.45;;;;;;;-0.51;65.54;99363.06;5055000;28;20089;-56
2022/11/17 03:17:31;;;;;;;17.25;8.90;;;;;;;-0.50;65.13;99349.84;5055428;28;20029;-56
2022/11/17 03:20:20;;;;;;;9.45;6.03;;;;;;;-0.41;64.35;99347.75;5045860;28;20045;-56
2022/11/17 03:22:57;;;;;;;14.95;7.90;;;;;;;-0.49;64.39;99343.66;5034183;28;20041;-56
2022/11/17 03:25:26;;;;;;;17.85;8.73;;;;;;;-0.52;64.55;99345.59;5034918;28;20440;-56
2022/11/17 03:27:58;;;;;;;17.60;10.02;;;;;;;-0.52;64.67;99341.16;5054182;28;20025;-53
2022/11/17 03:30:24;;;;;;;14.73;9.50;;;;;;;-0.58;64.38;99338.81;5054320;28;20332;-53
2022/11/17 03:32:58;;;;;;;14.68;9.27;;;;;;;-0.60;64.75;99324.88;5054449;28;20029;-55
2022/11/17 03:35:28;;;;;;;15.80;9.65;;;;;;;-0.53;65.17;99346.50;5055283;28;20132;-57
2022/11/17 03:38:00;;;;;;;14.43;9.27;;;;;;;-0.53;65.76;99331.56;5054191;28;20359;-55
2022/11/17 03:40:28;;;;;;;16.50;9.38;;;;;;;-0.55;65.48;99333.41;5054076;28;20040;-53
2022/11/17 03:42:58;;;;;;;16.52;10.45;;;;;;;-0.53;65.35;99326.31;5054523;28;20044;-52
2022/11/17 03:45:32;;;;;;;15.25;9.73;;;;;;;-0.48;65.53;99334.00;5054729;28;20037;-53
2022/11/17 03:48:06;;;;;;;16.63;9.95;;;;;;;-0.53;64.90;99326.31;5054483;28;20029;-54
2022/11/17 03:50:35;;;;;;;14.52;9.63;;;;;;;-0.55;65.48;99328.16;5040067;28;20069;-57
2022/11/17 03:53:03;;;;;;;16.50;10.02;;;;;;;-0.49;65.08;99335.78;5033037;28;20029;-55
2022/11/17 03:55:50;;;;;;;20.35;10.68;;;;;;;-0.45;65.27;99329.50;5034647;28;20025;-56
2022/11/17 03:58:20;;;;;;;16.10;9.98;;;;;;;-0.46;65.16;99330.41;5033831;28;20055;-57
2022/11/17 04:00:49;;;;;;;20.88;10.52;;;;;;;-0.68;64.88;99290.19;5048828;28;20452;-53
2022/11/17 04:03:15;;;;;;;13.30;9.32;;;;;;;-0.51;65.12;99321.84;5054425;28;20025;-56
2022/11/17 04:05:40;;;;;;;18.48;9.52;;;;;;;-0.51;65.30;99323.63;5053985;28;20086;-58
2022/11/17 04:08:06;;;;;;;19.65;10.60;;;;;;;-0.49;65.47;99322.63;5053817;28;20227;-58
2022/11/17 04:15:54;;;;;;;16.02;9.52;;;;;;;-0.49;65.26;99322.63;5054075;28;20033;-56
2022/11/17 04:16:00;;;;;;;16.88;9.88;;;;;;;-0.42;65.12;99317.97;5033975;28;20033;-61
2022/11/17 04:18:26;;;;;;;17.77;9.57;;;;;;;-0.42;64.60;99317.13;5034546;28;20142;-55
2022/11/17 04:20:53;;;;;;;15.10;9.40;;;;;;;-0.41;64.58;99318.84;5049536;28;20124;-56
2022/11/17 04:23:20;;;;;;;16.70;9.52;;;;;;;-0.44;64.91;99310.16;5053794;28;20108;-55
2022/11/17 04:28:35;;;;;;;12.90;8.63;;;;;;;-0.38;64.39;99306.38;5053916;28;20055;-55
2022/11/17 04:31:18;;;;;;;16.00;9.73;;;;;;;-0.35;64.17;99315.91;5035811;28;20045;-53
2022/11/17 04:33:47;;;;;;;17.05;10.27;;;;;;;-0.44;64.28;99306.66;5033699;28;20120;-56
2022/11/17 04:36:14;;;;;;;16.42;10.60;;;;;;;-0.41;64.97;99297.78;5037666;28;20025;-57
2022/11/17 04:38:45;;;;;;;16.77;10.38;;;;;;;-0.37;65.08;99309.88;5051033;28;20119;-52
2022/11/17 04:43:57;;;;;;;;;;;;;;;-0.06;64.62;99311.13;5033056;28;20124;-55
2022/11/17 04:46:24;;;;;;;16.10;10.48;;;;;;;-0.23;64.03;99318.03;5033051;28;20859;-53
2022/11/17 04:48:52;;;;;;;17.88;11.10;;;;;;;-0.28;64.38;99313.88;5033112;28;20408;-53
2022/11/17 04:51:17;;;;;;;18.15;10.48;;;;;;;-0.41;64.36;99301.25;5051966;28;20043;-54
2022/11/17 04:53:43;;;;;;;17.92;11.52;;;;;;;-0.40;64.70;99310.84;5053576;28;20041;-52
2022/11/17 04:56:09;;;;;;;20.85;11.10;;;;;;;-0.42;64.65;99309.22;5053069;28;20040;-55
2022/11/17 04:58:35;;;;;;;20.00;12.20;;;;;;;-0.42;65.17;99306.59;5048264;28;20025;-60
2022/11/17 05:01:13;;;;;;;22.10;11.65;;;;;;;-0.50;65.22;99305.13;5046642;28;20039;-58
2022/11/17 05:03:43;;;;;;;20.80;11.65;;;;;;;-0.51;65.13;99311.31;5053024;28;20083;-53
2022/11/17 05:06:10;;;;;;;17.35;11.57;;;;;;;-0.50;65.70;99314.81;5053215;28;20070;-52
2022/11/17 05:08:37;;;;;;;17.40;11.88;;;;;;;-0.47;65.66;99309.44;5051756;28;20064;-55
2022/11/17 05:13:50;;;;;;;19.98;11.73;;;;;;;-0.43;64.89;99303.09;5033319;28;20036;-57
2022/11/17 05:19:22;;;;;;;21.23;12.60;;;;;;;-0.37;65.84;99309.88;5035589;28;20151;-53
2022/11/17 05:21:49;;;;;;;20.75;12.43;;;;;;;-0.36;65.49;99312.47;5037219;28;20029;-53
2022/11/17 05:24:15;;;;;;;20.85;12.73;;;;;;;-0.33;66.10;99308.81;5030913;28;20037;-53
2022/11/17 05:26:41;;;;;;;19.42;12.30;;;;;;;-0.32;64.93;99300.00;5030662;28;20033;-53
2022/11/17 05:29:08;;;;;;;21.25;12.77;;;;;;;-0.31;64.83;99309.59;5034332;28;20106;-62
2022/11/17 05:31:34;;;;;;;24.17;12.93;;;;;;;-0.32;64.99;99302.63;5051076;28;20045;-58
2022/11/17 05:34:01;;;;;;;19.63;12.63;;;;;;;-0.33;65.57;99312.31;5050749;28;20212;-56
2022/11/17 05:36:27;;;;;;;19.90;12.77;;;;;;;-0.32;65.33;99308.75;5045633;28;20041;-57
2022/11/17 05:38:53;;;;;;;20.83;12.90;;;;;;;-0.48;65.70;99287.53;5045730;28;20490;-60
2022/11/17 05:41:19;;;;;;;25.38;14.32;;;;;;;-0.31;65.67;99314.88;5030933;28;20065;-58
2022/11/17 05:43:45;;;;;;;20.48;12.52;;;;;;;-0.24;65.79;99300.53;5013849;28;20456;-58
2022/11/17 05:46:11;;;;;;;21.58;12.07;;;;;;;-0.20;65.82;99307.38;5030450;28;20099;-57
2022/11/17 05:48:37;;;;;;;16.63;11.57;;;;;;;-0.21;65.09;99294.25;5043911;28;20223;-60
2022/11/17 05:51:03;;;;;;;19.58;12.20;;;;;;;-0.16;65.65;99313.31;5031496;28;20052;-57
2022/11/17 05:53:29;;;;;;;21.05;12.50;;;;;;;-0.18;65.18;99302.88;5032036;28;20029;-56
2022/11/17 05:56:12;;;;;;;24.75;12.75;;;;;;;-0.08;65.36;99308.59;5032034;28;20029;-56
2022/11/17 05:58:41;;;;;;;24.10;13.65;;;;;;;-0.05;65.32;99302.31;5046380;28;20486;-58
2022/11/17 06:01:09;;;;;;;20.83;12.52;;;;;;;-0.01;65.10;99307.38;5052189;28;20029;-56
2022/11/17 06:03:40;;;;;;;23.10;13.75;;;;;;;0.00;65.45;99297.72;5052125;28;20029;-58
2022/11/17 06:06:07;;;;;;;25.25;13.52;;;;;;;0.06;65.42;99296.56;5045650;28;20033;-59
2022/11/17 06:08:35;;;;;;;19.33;13.40;;;;;;;0.05;64.90;99297.50;5044616;28;20116;-61
2022/11/17 06:11:00;;;;;;;20.90;12.48;;;;;;;0.03;65.62;99299.34;5051951;28;20041;-58
2022/11/17 06:13:27;;;;;;;23.55;12.98;;;;;;;0.06;65.39;99302.69;5052265;28;20025;-59
2022/11/17 06:15:56;;;;;;;22.35;12.73;;;;;;;0.01;65.74;99298.56;5051073;28;20048;-58
2022/11/17 06:18:26;;;;;;;23.17;14.10;;;;;;;0.01;65.29;99298.56;5040182;28;20452;-58
2022/11/17 06:20:52;;;;;;;18.38;13.32;;;;;;;-0.07;65.40;99304.16;5032427;28;20113;-58
2022/11/17 06:23:21;;;;;;;28.55;13.70;;;;;;;-0.08;64.80;99299.81;5032006;28;20124;-57
2022/11/17 06:25:47;;;;;;;25.27;14.20;;;;;;;-0.20;65.25;99296.84;5031682;28;20526;-59
2022/11/17 06:28:17;;;;;;;25.30;14.38;;;;;;;-0.12;64.53;99303.53;5041388;28;20462;-55
2022/11/17 06:30:43;;;;;;;19.55;13.25;;;;;;;-0.16;64.35;99302.81;5052063;28;20051;-57
2022/11/17 06:33:11;;;;;;;29.00;16.33;;;;;;;-0.11;64.37;99308.72;5051714;28;20496;-59
2022/11/17 06:35:37;;;;;;;39.42;21.40;;;;;;;-0.11;65.02;99303.47;5051720;28;20464;-58
2022/11/17 06:38:03;;;;;;;40.85;21.60;;;;;;;-0.08;64.78;99310.34;5042956;28;20034;-59
2022/11/17 06:40:28;;;;;;;48.63;24.77;;;;;;;0.00;63.92;99310.88;5032296;28;20812;-59
2022/11/17 06:43:07;;;;;;;44.65;24.23;;;;;;;-0.03;63.85;99303.09;5031481;28;20098;-60
2022/11/17 06:45:36;;;;;;;47.22;26.83;;;;;;;-0.15;64.64;99304.50;5031644;28;20041;-54
2022/11/17 06:48:02;;;;;;;48.03;25.35;;;;;;;-0.14;63.72;99300.94;5040031;28;20102;-55
2022/11/17 06:50:27;;;;;;;47.92;24.33;;;;;;;-0.17;63.07;99307.22;5050870;28;20436;-57
2022/11/17 06:52:57;;;;;;;45.40;25.60;;;;;;;-0.35;64.07;99308.03;5031089;28;20033;-56
2022/11/17 06:55:24;;;;;;;44.45;25.27;;;;;;;-0.35;64.06;99310.66;5031628;28;20122;-58
2022/11/17 06:57:49;;;;;;;47.20;25.50;;;;;;;-0.44;64.01;99306.66;5037047;28;20037;-57
2022/11/17 07:00:15;;;;;;;43.55;25.17;;;;;;;-0.36;63.82;99306.31;5051711;28;20032;-56
2022/11/17 07:02:40;;;;;;;40.60;22.98;;;;;;;-0.28;62.69;99314.72;5050835;28;20457;-60
2022/11/17 07:05:06;;;;;;;43.55;21.88;;;;;;;-0.22;62.42;99313.59;5051798;28;20040;-60
2022/11/17 07:07:31;;;;;;;48.30;24.27;;;;;;;-0.36;62.63;99308.97;5047759;28;20029;-58
2022/11/17 07:09:57;;;;;;;47.50;26.15;;;;;;;-0.46;63.48;99312.00;5031837;28;20563;-60
2022/11/17 07:12:22;;;;;;;47.10;25.88;;;;;;;-0.36;63.41;99316.84;5031474;28;20105;-56
2022/11/17 07:14:48;;;;;;;37.95;20.70;;;;;;;-0.21;62.23;99317.94;5039741;28;20452;-56
2022/11/17 07:17:13;;;;;;;44.70;23.80;;;;;;;-0.16;61.74;99321.22;5046479;28;20021;-60
2022/11/17 07:19:38;;;;;;;39.47;22.67;;;;;;;-0.15;62.58;99315.03;5048037;28;20025;-60
2022/11/17 07:22:04;;;;;;;35.92;20.85;;;;;;;0.07;60.83;99320.19;5044180;28;20112;-59
2022/11/17 07:24:29;;;;;;;33.92;18.63;;;;;;;0.06;61.08;99315.00;5040735;28;20025;-60
2022/11/17 07:26:55;;;;;;;35.30;19.73;;;;;;;0.03;60.73;99328.28;5034413;28;20030;-57
2022/11/17 07:29:20;;;;;;;34.75;19.00;;;;;;;0.18;59.68;99321.47;5041428;28;20119;-59
2022/11/17 07:31:45;;;;;;;31.48;17.65;;;;;;;0.34;59.35;99322.50;5050895;28;20052;-55
2022/11/17 07:34:11;;;;;;;25.08;14.05;;;;;;;0.53;57.85;99313.72;5054684;28;20033;-60
2022/11/17 07:36:36;;;;;;;20.92;12.95;;;;;;;0.55;58.40;99325.03;5046085;28;20750;-58
2022/11/17 07:39:04;;;;;;;21.23;11.98;;;;;;;0.77;57.65;99329.28;5046932;28;20025;-53
2022/11/17 07:41:30;;;;;;;18.30;11.00;;;;;;;0.95;57.50;99320.47;5051503;28;20124;-54
2022/11/17 07:43:57;;;;;;;16.45;10.38;;;;;;;1.12;56.50;99321.44;5054248;28;20045;-60
2022/11/17 07:46:23;;;;;;;15.00;9.20;;;;;;;1.03;56.18;99327.16;5053326;28;20037;-58
2022/11/17 07:48:53;;;;;;;14.52;8.82;;;;;;;1.04;55.74;99327.06;5053926;28;20348;-56
2022/11/17 07:51:18;;;;;;;16.40;9.68;;;;;;;0.88;56.00;99337.50;5052990;28;20037;-53
2022/11/17 07:53:43;;;;;;;15.32;10.23;;;;;;;0.75;57.17;99320.59;5054560;28;20033;-54
2022/11/17 07:56:10;;;;;;;18.02;10.68;;;;;;;0.54;56.60;99303.09;5048385;28;20440;-60
2022/11/17 07:58:36;;;;;;;19.25;11.35;;;;;;;0.74;57.45;99321.53;5042397;28;20029;-61
2022/11/17 08:01:11;;;;;;;22.08;12.38;;;;;;;0.80;57.77;99310.69;5048558;28;20029;-61
2022/11/17 08:03:36;;;;;;;19.00;11.65;;;;;;;0.85;57.29;99322.72;5044916;28;20474;-56
2022/11/17 08:06:05;;;;;;;18.27;11.18;;;;;;;0.80;56.41;99282.53;5053159;28;20033;-57
2022/11/17 08:08:31;;;;;;;17.83;11.63;;;;;;;0.81;56.91;99322.94;5051440;28;20060;-59
2022/11/17 08:11:01;;;;;;;17.67;10.32;;;;;;;0.79;55.47;99328.28;5052050;28;20124;-59
2022/11/17 08:13:27;;;;;;;22.77;13.65;;;;;;;0.37;56.95;99322.34;5043526;28;20108;-61
2022/11/17 08:15:56;;;;;;;19.85;12.77;;;;;;;0.08;57.57;99285.06;5048661;28;20056;-59
2022/11/17 08:18:21;;;;;;;21.13;13.15;;;;;;;0.08;57.96;99315.78;5053088;28;20057;-61
2022/11/17 08:20:47;;;;;;;19.05;12.95;;;;;;;-0.06;58.78;99316.41;5044273;28;20456;-56
2022/11/17 08:23:12;;;;;;;18.00;11.80;;;;;;;-0.05;58.46;99312.84;5046645;28;20037;-55
2022/11/17 08:25:37;;;;;;;23.65;13.82;;;;;;;-0.07;58.21;99323.47;5052515;28;20108;-56
2022/11/17 08:28:03;;;;;;;23.08;13.48;;;;;;;-0.05;57.68;99323.38;5049744;28;20030;-60
2022/11/17 08:30:30;;;;;;;20.42;13.15;;;;;;;-0.04;56.78;99307.53;5033380;28;20440;-59
2022/11/17 08:32:55;;;;;;;24.15;14.32;;;;;;;-0.25;57.28;99295.34;5033831;28;20087;-57
2022/11/17 08:35:23;;;;;;;27.10;16.58;;;;;;;-0.40;57.45;99294.25;5036118;28;20037;-56
2022/11/17 08:37:49;;;;;;;26.13;16.30;;;;;;;-0.33;57.53;99319.34;5033256;28;20095;-54
2022/11/17 08:40:15;;;;;;;29.48;18.95;;;;;;;-0.29;57.96;99320.91;5044836;28;20033;-59
2022/11/17 08:42:40;;;;;;;32.78;21.75;;;;;;;-0.34;59.07;99301.84;5049358;28;20029;-66
2022/11/17 08:45:07;;;;;;;39.58;20.60;;;;;;;-0.09;57.84;99306.88;5053178;28;20043;-60
2022/11/17 08:47:33;;;;;;;36.45;21.30;;;;;;;0.08;57.27;99303.47;5051891;28;20124;-59
2022/11/17 08:49:58;;;;;;;32.90;17.42;;;;;;;0.35;57.09;99318.94;5042408;28;20212;-57
2022/11/17 08:52:26;;;;;;;43.30;23.40;;;;;;;0.22;56.70;99318.63;5035784;28;20036;-64
2022/11/17 08:54:53;;;;;;;37.03;20.48;;;;;;;0.25;56.95;99320.28;5043779;28;20053;-62
2022/11/17 08:57:20;;;;;;;33.78;19.17;;;;;;;0.40;55.73;99314.28;5043180;28;20485;-62
2022/11/17 08:59:46;;;;;;;32.13;18.13;;;;;;;0.21;56.55;99280.06;5039248;28;20482;-62
2022/11/17 09:02:12;;;;;;;25.13;14.52;;;;;;;0.68;55.10;99315.59;5045537;28;20033;-61
2022/11/17 09:04:38;;;;;;;21.88;11.00;;;;;;;1.11;53.95;99299.50;5036362;28;20038;-62
2022/11/17 09:07:04;;;;;;;16.52;9.15;;;;;;;1.18;52.69;99304.44;5050524;28;20033;-62
2022/11/17 09:09:30;;;;;;;17.65;8.40;;;;;;;1.19;52.73;99304.34;5039447;28;20048;-64
2022/11/17 09:11:56;;;;;;;14.40;8.30;;;;;;;1.35;52.51;99300.97;5046706;28;20371;-62
2022/11/17 09:14:22;;;;;;;13.48;8.10;;;;;;;1.34;52.10;99301.88;5052242;28;20033;-64
2022/11/17 09:16:47;;;;;;;13.63;8.35;;;;;;;1.48;52.08;99299.41;5043323;28;20107;-62
2022/11/17 09:19:14;;;;;;;13.45;7.47;;;;;;;1.50;51.37;99302.81;5032871;28;20036;-63
2022/11/17 09:21:40;;;;;;;10.40;6.95;;;;;;;1.29;51.71;99300.34;5032686;28;20036;-63
2022/11/17 09:24:06;;;;;;;11.75;7.85;;;;;;;1.03;52.51;99290.25;5032929;28;20037;-64
2022/11/17 09:26:31;;;;;;;12.52;6.30;;;;;;;0.90;53.08;99298.75;5032486;28;20036;-63
2022/11/17 09:29:03;;;;;;;11.95;6.80;;;;;;;0.98;53.96;99296.63;5040866;28;20386;-62
2022/11/17 09:31:29;;;;;;;12.88;7.45;;;;;;;1.03;53.36;99288.47;5047295;28;20059;-63
2022/11/17 09:33:54;;;;;;;16.00;7.97;;;;;;;0.83;52.75;99265.75;5050679;28;20025;-62
2022/11/17 09:36:20;;;;;;;20.55;7.45;;;;;;;0.93;53.03;99272.25;5037321;28;20025;-65
2022/11/17 09:38:45;;;;;;;11.73;8.13;;;;;;;0.91;53.04;99284.66;5051683;28;20379;-62
2022/11/17 09:41:14;;;;;;;15.88;9.65;;;;;;;0.83;53.23;99278.91;5046994;28;20025;-64
2022/11/17 09:43:44;;;;;;;15.40;9.18;;;;;;;0.63;53.21;99283.38;5038835;28;20375;-63
2022/11/17 09:46:24;;;;;;;16.65;8.90;;;;;;;0.56;53.37;99282.81;5032269;28;20072;-63
2022/11/17 09:49:11;;;;;;;13.82;8.48;;;;;;;0.26;54.31;99279.88;5032268;28;20029;-62
2022/11/17 09:51:41;;;;;;;15.60;8.77;;;;;;;0.22;54.36;99291.44;5032019;28;20061;-64
2022/11/17 09:54:17;;;;;;;17.55;8.88;;;;;;;0.28;54.30;99288.56;5050670;28;20029;-62
2022/11/17 09:56:45;;;;;;;11.63;7.13;;;;;;;0.19;53.18;99286.31;5051468;28;20035;-64
2022/11/17 09:59:14;;;;;;;8.00;5.32;;;;;;;0.05;53.08;99293.09;5034165;28;20029;-62
2022/11/17 10:01:39;;;;;;;10.52;5.97;;;;;;;-0.26;53.59;99288.38;5039057;28;20029;-63
2022/11/17 10:04:15;;;;;;;10.52;5.25;;;;;;;-0.36;53.89;99285.28;5033310;28;20040;-60
2022/11/17 10:06:44;;;;;;;8.57;5.03;;;;;;;-0.56;53.56;99279.13;5038971;28;20037;-62
2022/11/17 10:09:33;;;;;;;6.88;3.97;;;;;;;-0.61;53.81;99288.97;5050968;28;20032;-63
2022/11/17 10:12:13;;;;;;;8.68;4.75;;;;;;;-0.51;53.48;99287.66;5051595;28;20051;-61
2022/11/17 10:14:39;;;;;;;8.02;5.00;;;;;;;-0.46;53.13;99296.22;5051715;28;20037;-62
2022/11/17 10:17:05;;;;;;;8.15;5.47;;;;;;;-0.46;53.31;99297.97;5039426;28;20037;-61
2022/11/17 10:19:35;;;;;;;9.38;5.18;;;;;;;-0.50;54.35;99299.03;5031942;28;20025;-62
2022/11/17 10:22:00;;;;;;;8.00;4.78;;;;;;;-0.71;54.27;99288.53;5039390;28;20124;-62
2022/11/17 10:24:41;;;;;;;7.80;5.00;;;;;;;-0.78;55.38;99295.81;5031457;28;20037;-63
2022/11/17 10:27:16;;;;;;;6.63;3.80;;;;;;;-0.70;55.15;99282.34;5031319;28;20041;-64
2022/11/17 10:30:12;;;;;;;6.30;4.60;;;;;;;-0.65;54.47;99300.56;5032342;28;20060;-62
2022/11/17 10:32:47;;;;;;;7.72;4.53;;;;;;;-0.77;54.51;99294.88;5044928;28;20120;-61
2022/11/17 10:35:12;;;;;;;7.00;3.75;;;;;;;-0.77;54.22;99296.69;5050863;28;20043;-56
2022/11/17 10:37:43;;;;;;;7.50;4.25;;;;;;;-0.73;54.15;99298.25;5039132;28;20435;-59
2022/11/17 10:40:19;;;;;;;8.23;4.30;;;;;;;-0.78;53.97;99289.72;5045830;28;20427;-56
2022/11/17 10:43:05;;;;;;;9.77;5.13;;;;;;;-0.81;54.72;99293.31;5050590;28;20360;-56
2022/11/17 10:45:31;;;;;;;6.85;4.63;;;;;;;-0.71;53.80;99285.06;5032492;28;20402;-58
2022/11/17 10:48:09;;;;;;;6.93;4.40;;;;;;;-0.53;53.82;99292.13;5031373;28;20055;-59
2022/11/17 10:50:35;;;;;;;7.90;4.57;;;;;;;-0.49;53.38;99295.50;5035894;28;20126;-55
2022/11/17 10:53:21;;;;;;;9.75;5.35;;;;;;;-0.55;53.78;99291.34;5050848;28;20076;-60
2022/11/17 10:55:54;;;;;;;11.15;5.30;;;;;;;-0.57;54.36;99293.19;5051501;28;20040;-59
2022/11/17 10:58:31;;;;;;;8.82;4.63;;;;;;;-0.63;55.06;99288.19;5051218;28;20036;-62
2022/11/17 11:01:01;;;;;;;7.20;4.80;;;;;;;-0.60;53.62;99286.31;5042146;28;20124;-56
2022/11/17 11:03:35;;;;;;;6.93;4.55;;;;;;;-0.68;53.86;99282.28;5051105;28;20056;-59
2022/11/17 11:06:19;;;;;;;9.05;4.95;;;;;;;-0.63;54.14;99293.47;5052999;28;20036;-60
2022/11/17 11:08:53;;;;;;;8.45;5.07;;;;;;;-0.83;54.88;99303.03;5045176;28;20124;-60
2022/11/17 11:11:55;;;;;;;9.52;5.22;;;;;;;-0.59;54.36;99288.00;5039862;28;20098;-57
2022/11/17 11:14:37;;;;;;;7.18;3.65;;;;;;;-0.73;54.20;99291.22;5032694;28;20119;-60
2022/11/17 11:17:13;;;;;;;5.15;3.58;;;;;;;-1.02;55.03;99295.91;5034877;28;20112;-59
2022/11/17 11:19:42;;;;;;;7.50;3.92;;;;;;;-1.13;55.75;99297.28;5035445;28;20033;-58
2022/11/17 11:22:33;;;;;;;9.13;4.22;;;;;;;-0.98;55.62;99303.66;5052957;28;20403;-56
2022/11/17 11:25:25;;;;;;;6.35;3.67;;;;;;;-0.94;55.42;99298.22;5054505;28;20083;-53
2022/11/17 11:28:04;;;;;;;9.40;4.50;;;;;;;-1.14;55.52;99309.56;5052734;28;20374;-60
2022/11/17 11:30:41;;;;;;;7.18;4.28;;;;;;;-1.24;56.00;99295.97;5052421;28;20036;-58
2022/11/17 11:33:43;;;;;;;5.25;3.75;;;;;;;-1.11;55.14;99293.69;5045339;28;20358;-59
2022/11/17 11:36:22;;;;;;;6.72;4.38;;;;;;;-1.21;55.42;99287.06;5049192;28;20024;-59
2022/11/17 11:39:05;;;;;;;6.22;3.42;;;;;;;-0.97;54.87;99286.97;5041551;28;20041;-56
2022/11/17 11:41:52;;;;;;;7.88;4.30;;;;;;;-1.08;54.74;99298.81;5045380;28;20029;-59
2022/11/17 11:44:35;;;;;;;8.13;4.80;;;;;;;-1.19;55.55;99301.03;5038833;28;20147;-61
2022/11/17 11:47:42;;;;;;;10.95;4.95;;;;;;;-1.21;56.37;99298.47;5054535;28;20056;-57
2022/11/17 11:50:27;;;;;;;7.68;4.80;;;;;;;-1.17;56.64;99304.44;5053024;28;20129;-56
2022/11/17 11:53:03;;;;;;;10.98;5.60;;;;;;;-1.21;57.57;99295.84;5047128;28;20502;-57
2022/11/17 11:55:33;;;;;;;12.07;6.13;;;;;;;-1.34;59.24;99292.84;5051960;28;20026;-56
2022/11/17 11:58:21;;;;;;;12.60;6.43;;;;;;;-1.12;58.53;99293.72;5042188;28;20047;-58
2022/11/17 12:00:51;;;;;;;11.80;6.53;;;;;;;-1.16;58.97;99291.22;5054893;28;20067;-59
2022/11/17 12:03:26;;;;;;;13.68;7.07;;;;;;;-1.34;60.09;99282.34;5041979;28;20025;-58
2022/11/17 12:09:40;;;;;;;9.63;6.05;;;;;;;-1.12;59.24;99302.50;5053441;28;20040;-61